createdAt,value
2019-02-18T00:00:52.228Z,9.94
2019-02-18T00:01:52.208Z,9.98
2019-02-18T00:02:52.189Z,10.05
2019-02-18T00:03:52.170Z,10.06
2019-02-18T00:04:52.152Z,10.09
2019-02-18T00:05:52.132Z,10.14
2019-02-18T00:06:52.129Z,10.12
2019-02-18T00:07:52.095Z,10.17
2019-02-18T00:08:52.077Z,10.23
2019-02-18T00:09:52.058Z,10.27
2019-02-18T00:10:52.039Z,10.18
2019-02-18T00:11:52.020Z,10.17
2019-02-18T00:12:52.003Z,10.14
2019-02-18T00:13:51.987Z,10.06
2019-02-18T00:14:51.970Z,10.14
2019-02-18T00:15:51.945Z,10.12
2019-02-18T00:16:51.927Z,10.02
2019-02-18T00:17:51.907Z,10.12
2019-02-18T00:18:51.898Z,10.01
2019-02-18T00:19:51.869Z,10.02
2019-02-18T00:20:51.854Z,9.99
2019-02-18T00:21:51.833Z,10.08
2019-02-18T00:22:51.817Z,9.88
2019-02-18T00:23:51.795Z,9.84
2019-02-18T00:24:51.776Z,9.73
2019-02-18T00:25:51.756Z,9.65
2019-02-18T00:26:51.738Z,9.62
2019-02-18T00:27:51.719Z,9.52
2019-02-18T00:28:51.699Z,9.59
2019-02-18T00:29:51.680Z,9.65
2019-02-18T00:30:51.663Z,9.72
2019-02-18T00:31:51.646Z,9.78
2019-02-18T00:32:51.622Z,9.78
2019-02-18T00:33:51.609Z,9.73
2019-02-18T00:34:51.583Z,9.80
2019-02-18T00:35:51.585Z,9.80
2019-02-18T00:36:51.549Z,9.87
2019-02-18T00:37:51.528Z,9.83
2019-02-18T00:38:51.512Z,9.87
2019-02-18T00:39:51.492Z,9.88
2019-02-18T00:40:51.477Z,9.99
2019-02-18T00:41:51.452Z,9.93
2019-02-18T00:42:51.434Z,9.99
2019-02-18T00:43:51.422Z,9.88
2019-02-18T00:44:51.394Z,9.93
2019-02-18T00:45:51.383Z,9.99
2019-02-18T00:46:51.356Z,9.98
2019-02-18T00:47:51.340Z,10.02
2019-02-18T00:48:51.322Z,9.98
2019-02-18T00:49:51.298Z,10.12
2019-02-18T00:50:51.288Z,10.08
2019-02-18T00:51:51.270Z,10.12
2019-02-18T00:52:51.241Z,10.10
2019-02-18T00:53:51.227Z,10.08
2019-02-18T00:54:51.211Z,10.12
2019-02-18T00:55:51.185Z,10.09
2019-02-18T00:56:51.172Z,10.10
2019-02-18T00:57:51.154Z,10.10
2019-02-18T00:58:51.133Z,10.09
2019-02-18T00:59:51.107Z,9.98
2019-02-18T01:00:51.090Z,9.93
2019-02-18T01:01:51.072Z,9.78
2019-02-18T01:02:51.059Z,9.67
2019-02-18T01:03:51.033Z,9.66
2019-02-18T01:04:51.018Z,9.57
2019-02-18T01:05:51.001Z,9.59
2019-02-18T01:06:50.981Z,9.59
2019-02-18T01:07:50.956Z,9.57
2019-02-18T01:08:50.938Z,9.62
2019-02-18T01:09:50.919Z,9.59
2019-02-18T01:10:50.902Z,9.57
2019-02-18T01:11:50.881Z,9.55
2019-02-18T01:12:50.868Z,9.52
2019-02-18T01:13:50.841Z,9.44
2019-02-18T01:14:50.825Z,9.45
2019-02-18T01:15:50.805Z,9.27
2019-02-18T01:16:50.796Z,9.30
2019-02-18T01:17:50.769Z,9.24
2019-02-18T01:18:50.748Z,9.14
2019-02-18T01:19:50.730Z,8.95
2019-02-18T01:20:50.710Z,8.96
2019-02-18T01:21:50.693Z,8.89
2019-02-18T01:22:50.678Z,8.93
2019-02-18T01:23:50.654Z,8.85
2019-02-18T01:24:50.634Z,8.85
2019-02-18T01:25:50.616Z,8.65
2019-02-18T01:26:50.594Z,8.62
2019-02-18T01:27:50.580Z,8.59
2019-02-18T01:28:50.556Z,8.60
2019-02-18T01:29:50.534Z,8.57
2019-02-18T01:30:50.526Z,8.56
2019-02-18T01:31:50.503Z,8.49
2019-02-18T01:32:50.480Z,8.42
2019-02-18T01:33:50.459Z,8.46
2019-02-18T01:34:50.447Z,8.42
2019-02-18T01:35:50.418Z,8.47
2019-02-18T01:36:50.397Z,8.49
2019-02-18T01:37:50.379Z,8.49
2019-02-18T01:38:50.360Z,8.42
2019-02-18T01:39:50.338Z,8.46
2019-02-18T01:40:50.318Z,8.50
2019-02-18T01:41:50.303Z,8.60
2019-02-18T01:42:50.281Z,8.50
2019-02-18T01:43:50.266Z,8.50
2019-02-18T01:44:50.242Z,8.49
2019-02-18T01:45:50.235Z,8.46
2019-02-18T01:46:50.208Z,8.46
2019-02-18T01:47:50.183Z,8.57
2019-02-18T01:48:50.165Z,8.59
2019-02-18T01:49:50.145Z,8.57
2019-02-18T01:50:50.125Z,8.56
2019-02-18T01:51:50.106Z,8.57
2019-02-18T01:52:50.086Z,8.62
2019-02-18T01:53:50.066Z,8.68
2019-02-18T01:54:50.048Z,8.62
2019-02-18T01:55:50.031Z,8.67
2019-02-18T01:56:50.013Z,8.65
2019-02-18T01:57:49.985Z,8.65
2019-02-18T01:58:49.971Z,8.56
2019-02-18T01:59:49.948Z,8.62
2019-02-18T02:00:49.930Z,8.67
2019-02-18T02:01:49.909Z,8.62
2019-02-18T02:02:49.902Z,8.65
2019-02-18T02:03:49.871Z,8.60
2019-02-18T02:04:49.850Z,8.63
2019-02-18T02:05:49.830Z,8.56
2019-02-18T02:06:49.818Z,8.68
2019-02-18T02:07:56.449Z,8.67
2019-02-18T02:08:49.772Z,8.57
2019-02-18T02:09:49.754Z,8.52
2019-02-18T02:10:49.737Z,8.60
2019-02-18T02:11:49.718Z,8.57
2019-02-18T02:12:49.693Z,8.57
2019-02-18T02:13:49.673Z,8.63
2019-02-18T02:14:49.657Z,8.67
2019-02-18T02:15:49.630Z,8.59
2019-02-18T02:16:49.612Z,8.60
2019-02-18T02:17:49.594Z,8.59
2019-02-18T02:18:49.576Z,8.65
2019-02-18T02:19:49.555Z,8.62
2019-02-18T02:20:49.542Z,8.70
2019-02-18T02:21:49.520Z,8.57
2019-02-18T02:22:49.495Z,8.68
2019-02-18T02:23:49.481Z,8.67
2019-02-18T02:24:49.456Z,8.63
2019-02-18T02:25:49.437Z,8.62
2019-02-18T02:26:49.415Z,8.77
2019-02-18T02:27:49.393Z,8.67
2019-02-18T02:28:49.377Z,8.78
2019-02-18T02:29:49.358Z,8.71
2019-02-18T02:30:49.339Z,8.63
2019-02-18T02:31:49.315Z,8.63
2019-02-18T02:32:49.297Z,8.65
2019-02-18T02:33:49.278Z,8.65
2019-02-18T02:34:49.259Z,8.63
2019-02-18T02:35:49.241Z,8.63
2019-02-18T02:36:49.221Z,8.57
2019-02-18T02:37:49.226Z,8.59
2019-02-18T02:38:49.182Z,8.63
2019-02-18T02:39:49.159Z,8.52
2019-02-18T02:40:49.139Z,8.55
2019-02-18T02:41:49.118Z,8.49
2019-02-18T02:42:49.099Z,8.49
2019-02-18T02:43:49.082Z,8.29
2019-02-18T02:44:49.060Z,8.19
2019-02-18T02:45:49.047Z,8.04
2019-02-18T02:46:49.023Z,7.92
2019-02-18T02:47:48.999Z,7.80
2019-02-18T02:48:48.978Z,7.83
2019-02-18T02:49:48.969Z,7.81
2019-02-18T02:50:48.944Z,7.71
2019-02-18T02:51:48.922Z,7.73
2019-02-18T02:52:48.900Z,7.61
2019-02-18T02:53:48.878Z,7.61
2019-02-18T02:54:48.865Z,7.61
2019-02-18T02:55:48.841Z,7.55
2019-02-18T02:56:48.831Z,7.57
2019-02-18T02:57:48.801Z,7.54
2019-02-18T02:58:48.779Z,7.64
2019-02-18T02:59:48.768Z,7.73
2019-02-18T03:00:48.741Z,7.74
2019-02-18T03:01:48.723Z,7.69
2019-02-18T03:02:48.699Z,7.69
2019-02-18T03:03:48.686Z,7.73
2019-02-18T03:04:48.659Z,7.71
2019-02-18T03:05:48.651Z,7.86
2019-02-18T03:06:48.621Z,7.98
2019-02-18T03:07:48.607Z,8.06
2019-02-18T03:08:48.580Z,8.16
2019-02-18T03:09:48.570Z,8.21
2019-02-18T03:10:48.545Z,8.02
2019-02-18T03:11:48.520Z,7.81
2019-02-18T03:12:48.502Z,7.71
2019-02-18T03:13:48.482Z,7.66
2019-02-18T03:14:48.461Z,7.66
2019-02-18T03:15:48.444Z,7.62
2019-02-18T03:16:48.430Z,7.68
2019-02-18T03:17:48.406Z,7.69
2019-02-18T03:18:48.381Z,7.57
2019-02-18T03:19:48.368Z,7.57
2019-02-18T03:20:48.340Z,7.46
2019-02-18T03:21:48.332Z,7.49
2019-02-18T03:22:48.303Z,7.44
2019-02-18T03:23:48.282Z,7.40
2019-02-18T03:24:48.260Z,7.36
2019-02-18T03:25:48.238Z,7.39
2019-02-18T03:26:48.230Z,7.40
2019-02-18T03:27:48.197Z,7.40
2019-02-18T03:28:48.182Z,7.36
2019-02-18T03:29:48.160Z,7.40
2019-02-18T03:30:48.141Z,7.42
2019-02-18T03:31:48.127Z,7.44
2019-02-18T03:32:48.122Z,7.44
2019-02-18T03:33:48.085Z,7.46
2019-02-18T03:34:48.057Z,7.50
2019-02-18T03:35:48.049Z,7.52
2019-02-18T03:36:48.018Z,7.57
2019-02-18T03:37:47.992Z,7.57
2019-02-18T03:38:47.978Z,7.55
2019-02-18T03:39:47.955Z,7.57
2019-02-18T03:40:47.935Z,7.57
2019-02-18T03:41:47.912Z,7.44
2019-02-18T03:42:47.898Z,7.40
2019-02-18T03:43:47.872Z,7.29
2019-02-18T03:44:47.853Z,7.18
2019-02-18T03:45:47.834Z,6.88
2019-02-18T03:46:50.519Z,6.79
2019-02-18T03:47:47.792Z,6.71
2019-02-18T03:48:47.773Z,6.60
2019-02-18T03:49:47.753Z,6.67
2019-02-18T03:50:47.731Z,6.63
2019-02-18T03:51:47.712Z,6.74
2019-02-18T03:52:47.691Z,6.63
2019-02-18T03:53:47.671Z,6.82
2019-02-18T03:54:47.663Z,6.96
2019-02-18T03:55:47.630Z,6.91
2019-02-18T03:56:47.613Z,7.10
2019-02-18T03:57:47.589Z,7.10
2019-02-18T03:58:47.569Z,7.07
2019-02-18T03:59:47.547Z,7.04
2019-02-18T04:00:47.529Z,7.16
2019-02-18T04:01:47.505Z,7.13
2019-02-18T04:02:47.488Z,7.11
2019-02-18T04:03:47.463Z,7.21
2019-02-18T04:04:47.453Z,7.25
2019-02-18T04:05:47.427Z,7.22
2019-02-18T04:06:47.405Z,7.21
2019-02-18T04:07:47.384Z,7.28
2019-02-18T04:08:47.362Z,7.21
2019-02-18T04:09:47.340Z,7.25
2019-02-18T04:10:47.319Z,7.13
2019-02-18T04:11:47.301Z,7.25
2019-02-18T04:12:47.280Z,7.13
2019-02-18T04:13:47.271Z,7.16
2019-02-18T04:14:47.237Z,7.18
2019-02-18T04:15:47.217Z,7.13
2019-02-18T04:16:47.196Z,7.10
2019-02-18T04:17:47.178Z,7.10
2019-02-18T04:18:47.159Z,7.24
2019-02-18T04:19:47.137Z,7.18
2019-02-18T04:20:47.115Z,7.03
2019-02-18T04:21:47.095Z,7.13
2019-02-18T04:22:47.078Z,7.16
2019-02-18T04:23:47.055Z,7.07
2019-02-18T04:24:47.034Z,6.74
2019-02-18T04:25:47.014Z,6.57
2019-02-18T04:26:46.993Z,6.60
2019-02-18T04:27:46.975Z,6.63
2019-02-18T04:28:46.958Z,6.61
2019-02-18T04:29:46.936Z,6.63
2019-02-18T04:30:46.909Z,6.57
2019-02-18T04:31:46.890Z,6.37
2019-02-18T04:32:46.951Z,6.45
2019-02-18T04:33:46.860Z,6.43
2019-02-18T04:34:46.827Z,6.53
2019-02-18T04:35:46.806Z,6.57
2019-02-18T04:36:46.789Z,6.53
2019-02-18T04:37:46.769Z,6.57
2019-02-18T04:38:54.115Z,6.61
2019-02-18T04:39:46.723Z,6.60
2019-02-18T04:40:46.712Z,6.63
2019-02-18T04:41:46.682Z,6.65
2019-02-18T04:42:46.669Z,6.65
2019-02-18T04:43:46.640Z,6.57
2019-02-18T04:44:46.621Z,6.65
2019-02-18T04:45:46.599Z,6.75
2019-02-18T04:46:46.579Z,6.71
2019-02-18T04:47:46.565Z,6.74
2019-02-18T04:48:46.537Z,6.75
2019-02-18T04:49:46.525Z,6.83
2019-02-18T04:50:46.501Z,6.83
2019-02-18T04:51:46.474Z,6.88
2019-02-18T04:52:46.454Z,6.92
2019-02-18T04:53:46.434Z,6.88
2019-02-18T04:54:46.413Z,6.92
2019-02-18T04:55:46.391Z,6.93
2019-02-18T04:56:46.370Z,6.92
2019-02-18T04:57:46.351Z,6.89
2019-02-18T04:58:46.330Z,6.91
2019-02-18T04:59:46.308Z,6.91
2019-02-18T05:00:46.295Z,6.82
2019-02-18T05:01:46.276Z,6.75
2019-02-18T05:02:46.249Z,6.71
2019-02-18T05:03:46.224Z,6.63
2019-02-18T05:04:46.206Z,6.45
2019-02-18T05:05:46.191Z,6.42
2019-02-18T05:06:46.165Z,6.53
2019-02-18T05:07:46.147Z,6.40
2019-02-18T05:08:46.122Z,6.49
2019-02-18T05:09:46.103Z,6.38
2019-02-18T05:10:46.083Z,6.40
2019-02-18T05:11:46.059Z,6.37
2019-02-18T05:12:46.042Z,6.37
2019-02-18T05:13:46.152Z,6.34
2019-02-18T05:14:45.999Z,6.37
2019-02-18T05:15:45.976Z,6.35
2019-02-18T05:16:45.963Z,6.38
2019-02-18T05:17:45.938Z,6.37
2019-02-18T05:18:45.915Z,6.37
2019-02-18T05:19:45.894Z,6.34
2019-02-18T05:20:45.872Z,6.38
2019-02-18T05:21:45.852Z,6.31
2019-02-18T05:22:45.855Z,6.35
2019-02-18T05:23:45.810Z,6.40
2019-02-18T05:24:45.796Z,6.47
2019-02-18T05:25:45.770Z,6.43
2019-02-18T05:26:45.748Z,6.38
2019-02-18T05:27:45.732Z,6.40
2019-02-18T05:28:45.716Z,6.46
2019-02-18T05:29:45.686Z,6.40
2019-02-18T05:30:45.681Z,6.42
2019-02-18T05:31:45.649Z,6.50
2019-02-18T05:32:45.629Z,6.40
2019-02-18T05:33:45.599Z,6.42
2019-02-18T05:34:45.581Z,6.40
2019-02-18T05:35:45.558Z,6.46
2019-02-18T05:36:45.541Z,6.40
2019-02-18T05:37:45.530Z,6.43
2019-02-18T05:38:45.495Z,6.35
2019-02-18T05:39:45.480Z,6.40
2019-02-18T05:40:45.463Z,6.35
2019-02-18T05:41:45.434Z,6.42
2019-02-18T05:42:45.414Z,6.40
2019-02-18T05:43:45.393Z,6.43
2019-02-18T05:44:45.368Z,6.53
2019-02-18T05:45:45.348Z,6.53
2019-02-18T05:46:45.330Z,6.56
2019-02-18T05:47:45.307Z,6.60
2019-02-18T05:48:45.292Z,6.56
2019-02-18T05:49:45.267Z,6.61
2019-02-18T05:50:45.245Z,6.63
2019-02-18T05:51:45.224Z,6.63
2019-02-18T05:52:45.200Z,6.65
2019-02-18T05:53:45.186Z,6.61
2019-02-18T05:54:45.162Z,6.61
2019-02-18T05:55:45.137Z,6.65
2019-02-18T05:56:45.117Z,6.64
2019-02-18T05:57:45.099Z,6.68
2019-02-18T05:58:45.075Z,6.78
2019-02-18T05:59:45.055Z,6.75
2019-02-18T06:00:45.032Z,6.70
2019-02-18T06:01:45.014Z,6.75
2019-02-18T06:02:44.990Z,6.78
2019-02-18T06:03:44.977Z,6.64
2019-02-18T06:04:44.951Z,6.47
2019-02-18T06:05:44.930Z,6.40
2019-02-18T06:06:44.913Z,6.25
2019-02-18T06:07:44.888Z,6.15
2019-02-18T06:08:44.866Z,6.08
2019-02-18T06:09:44.856Z,6.06
2019-02-18T06:10:44.825Z,6.02
2019-02-18T06:11:44.845Z,5.95
2019-02-18T06:12:44.784Z,6.08
2019-02-18T06:13:44.774Z,5.93
2019-02-18T06:14:44.741Z,5.91
2019-02-18T06:15:44.718Z,5.97
2019-02-18T06:16:44.696Z,5.95
2019-02-18T06:17:44.680Z,5.98
2019-02-18T06:18:44.654Z,6.06
2019-02-18T06:19:44.634Z,6.03
2019-02-18T06:20:44.621Z,6.02
2019-02-18T06:21:44.602Z,5.90
2019-02-18T06:22:44.571Z,5.90
2019-02-18T06:23:44.548Z,5.95
2019-02-18T06:24:44.543Z,5.93
2019-02-18T06:25:44.511Z,5.88
2019-02-18T06:26:44.498Z,5.94
2019-02-18T06:27:44.470Z,5.77
2019-02-18T06:28:44.453Z,5.85
2019-02-18T06:29:44.421Z,5.73
2019-02-18T06:30:44.407Z,5.55
2019-02-18T06:31:44.382Z,5.59
2019-02-18T06:32:44.376Z,5.57
2019-02-18T06:33:44.337Z,5.59
2019-02-18T06:34:44.328Z,5.70
2019-02-18T06:35:44.333Z,5.70
2019-02-18T06:36:44.278Z,5.76
2019-02-18T06:37:44.256Z,5.77
2019-02-18T06:38:44.235Z,5.84
2019-02-18T06:39:44.209Z,5.79
2019-02-18T06:40:44.203Z,5.90
2019-02-18T06:41:44.176Z,5.94
2019-02-18T06:42:44.145Z,5.93
2019-02-18T06:43:44.131Z,6.02
2019-02-18T06:44:44.107Z,6.02
2019-02-18T06:45:44.080Z,5.98
2019-02-18T06:46:44.065Z,6.02
2019-02-18T06:47:44.039Z,6.02
2019-02-18T06:48:44.022Z,5.94
2019-02-18T06:49:44.005Z,5.98
2019-02-18T06:50:43.975Z,6.02
2019-02-18T06:51:43.953Z,5.97
2019-02-18T06:52:43.931Z,5.95
2019-02-18T06:53:43.911Z,5.88
2019-02-18T06:54:43.892Z,5.97
2019-02-18T06:55:43.868Z,5.97
2019-02-18T06:56:43.848Z,5.94
2019-02-18T06:57:43.835Z,6.06
2019-02-18T06:58:43.810Z,6.03
2019-02-18T06:59:43.787Z,6.02
2019-02-18T07:00:43.766Z,6.08
2019-02-18T07:01:43.740Z,6.05
2019-02-18T07:02:43.720Z,6.11
2019-02-18T07:03:43.699Z,6.15
2019-02-18T07:04:43.679Z,6.28
2019-02-18T07:05:43.661Z,6.55
2019-02-18T07:06:43.635Z,6.96
2019-02-18T07:07:43.618Z,7.25
2019-02-18T07:08:43.600Z,7.73
2019-02-18T07:09:50.910Z,8.10
2019-02-18T07:10:43.558Z,8.47
2019-02-18T07:11:43.542Z,8.65
2019-02-18T07:12:43.518Z,9.04
2019-02-18T07:13:43.500Z,9.33
2019-02-18T07:14:43.485Z,9.50
2019-02-18T07:15:43.468Z,9.88
2019-02-18T07:16:43.447Z,10.12
2019-02-18T07:17:43.431Z,10.20
2019-02-18T07:18:43.416Z,10.39
2019-02-18T07:19:43.397Z,10.62
2019-02-18T07:20:43.382Z,10.79
2019-02-18T07:21:43.375Z,11.08
2019-02-18T07:22:43.348Z,11.27
2019-02-18T07:23:43.331Z,11.41
2019-02-18T07:24:43.315Z,11.45
2019-02-18T07:25:43.319Z,11.64
2019-02-18T07:26:43.290Z,11.69
2019-02-18T07:27:43.280Z,11.96
2019-02-18T07:28:43.258Z,12.04
2019-02-18T07:29:43.243Z,12.21
2019-02-18T07:30:43.232Z,12.29
2019-02-18T07:31:43.216Z,12.47
2019-02-18T07:32:43.204Z,12.55
2019-02-18T07:33:43.198Z,12.62
2019-02-18T07:34:43.181Z,12.62
2019-02-18T07:35:43.177Z,12.76
2019-02-18T07:36:43.155Z,12.90
2019-02-18T07:37:43.145Z,13.01
2019-02-18T07:38:43.139Z,13.24
2019-02-18T07:39:43.120Z,13.51
2019-02-18T07:40:43.113Z,13.73
2019-02-18T07:41:43.099Z,14.00
2019-02-18T07:42:43.092Z,14.15
2019-02-18T07:43:43.079Z,14.31
2019-02-18T07:44:43.070Z,14.52
2019-02-18T07:45:43.058Z,14.67
2019-02-18T07:46:43.050Z,13.97
2019-02-18T07:47:43.037Z,13.57
2019-02-18T07:48:43.027Z,13.02
2019-02-18T07:49:43.018Z,12.88
2019-02-18T07:50:43.010Z,12.54
2019-02-18T07:51:43.007Z,13.13
2019-02-18T07:52:42.990Z,13.05
2019-02-18T07:53:42.981Z,12.47
2019-02-18T07:54:42.972Z,12.51
2019-02-18T07:55:42.965Z,12.21
2019-02-18T07:56:42.955Z,12.62
2019-02-18T07:57:42.946Z,12.96
2019-02-18T07:58:42.935Z,13.39
2019-02-18T07:59:42.976Z,13.57
2019-02-18T08:00:42.920Z,13.71
2019-02-18T08:01:42.924Z,14.37
2019-02-18T08:02:42.906Z,14.58
2019-02-18T08:03:42.900Z,14.31
2019-02-18T08:04:42.886Z,14.73
2019-02-18T08:05:42.880Z,15.26
2019-02-18T08:06:42.873Z,15.62
2019-02-18T08:07:42.867Z,16.10
2019-02-18T08:08:42.857Z,16.79
2019-02-18T08:09:42.859Z,17.19
2019-02-18T08:10:42.854Z,17.31
2019-02-18T08:11:42.835Z,16.92
2019-02-18T08:12:42.832Z,17.22
2019-02-18T08:13:42.830Z,17.50
2019-02-18T08:14:42.818Z,17.59
2019-02-18T08:15:42.809Z,17.63
2019-02-18T08:16:42.819Z,16.83
2019-02-18T08:17:42.808Z,16.57
2019-02-18T08:18:42.791Z,16.69
2019-02-18T08:19:42.786Z,17.38
2019-02-18T08:20:42.791Z,17.79
2019-02-18T08:21:42.778Z,18.24
2019-02-18T08:22:42.783Z,18.45
2019-02-18T08:23:42.776Z,18.26
2019-02-18T08:24:42.769Z,17.93
2019-02-18T08:25:42.759Z,17.87
2019-02-18T08:26:44.174Z,17.49
2019-02-18T08:27:42.746Z,17.52
2019-02-18T08:28:42.740Z,18.06
2019-02-18T08:29:42.736Z,18.51
2019-02-18T08:30:42.744Z,18.91
2019-02-18T08:31:42.728Z,19.34
2019-02-18T08:32:42.722Z,18.56
2019-02-18T08:33:42.714Z,18.78
2019-02-18T08:34:42.711Z,19.04
2019-02-18T08:35:42.704Z,19.09
2019-02-18T08:36:42.711Z,17.53
2019-02-18T08:37:42.697Z,16.82
2019-02-18T08:38:42.693Z,17.04
2019-02-18T08:39:42.693Z,17.09
2019-02-18T08:40:42.685Z,16.94
2019-02-18T08:41:42.684Z,17.72
2019-02-18T08:42:42.682Z,18.11
2019-02-18T08:43:42.673Z,17.71
2019-02-18T08:44:42.671Z,17.10
2019-02-18T08:45:42.669Z,16.70
2019-02-18T08:46:42.661Z,16.73
2019-02-18T08:47:42.662Z,17.22
2019-02-18T08:48:42.661Z,17.30
2019-02-18T08:49:42.651Z,17.90
2019-02-18T08:50:42.647Z,18.03
2019-02-18T08:51:42.650Z,18.51
2019-02-18T08:52:42.634Z,18.75
2019-02-18T08:53:42.634Z,18.42
2019-02-18T08:54:42.629Z,18.45
2019-02-18T08:55:42.627Z,18.70
2019-02-18T08:56:42.621Z,19.09
2019-02-18T08:57:42.618Z,18.94
2019-02-18T08:58:42.619Z,19.04
2019-02-18T08:59:42.615Z,19.13
2019-02-18T09:00:42.610Z,19.56
2019-02-18T09:01:42.608Z,19.79
2019-02-18T09:02:42.617Z,19.92
2019-02-18T09:03:42.602Z,19.93
2019-02-18T09:04:42.596Z,19.49
2019-02-18T09:05:42.594Z,19.62
2019-02-18T09:06:42.591Z,19.93
2019-02-18T09:07:42.594Z,20.74
2019-02-18T09:08:42.587Z,20.53
2019-02-18T09:09:42.586Z,20.44
2019-02-18T09:10:42.581Z,20.86
2019-02-18T09:11:42.591Z,21.01
2019-02-18T09:12:42.576Z,20.68
2019-02-18T09:13:42.582Z,20.86
2019-02-18T09:14:42.572Z,20.52
2019-02-18T09:15:42.573Z,21.04
2019-02-18T09:16:42.565Z,21.43
2019-02-18T09:17:42.567Z,21.80
2019-02-18T09:18:42.561Z,20.58
2019-02-18T09:19:42.559Z,19.94
2019-02-18T09:20:42.572Z,19.94
2019-02-18T09:21:42.556Z,19.56
2019-02-18T09:22:42.557Z,19.37
2019-02-18T09:23:42.552Z,20.00
2019-02-18T09:24:42.559Z,20.58
2019-02-18T09:25:43.502Z,21.08
2019-02-18T09:26:42.557Z,20.60
2019-02-18T09:27:42.547Z,20.70
2019-02-18T09:28:42.545Z,21.00
2019-02-18T09:29:42.538Z,21.48
2019-02-18T09:30:42.537Z,22.03
2019-02-18T09:31:42.990Z,22.41
2019-02-18T09:32:42.534Z,22.73
2019-02-18T09:33:42.545Z,22.95
2019-02-18T09:34:42.529Z,23.15
2019-02-18T09:35:42.528Z,23.49
2019-02-18T09:36:42.522Z,23.67
2019-02-18T09:37:42.535Z,23.06
2019-02-18T09:38:42.524Z,22.44
2019-02-18T09:39:42.518Z,21.50
2019-02-18T09:40:46.171Z,21.66
2019-02-18T09:41:42.513Z,21.90
2019-02-18T09:42:42.514Z,21.98
2019-02-18T09:43:42.511Z,22.11
2019-02-18T09:44:42.508Z,20.93
2019-02-18T09:45:42.512Z,20.68
2019-02-18T09:46:42.511Z,20.90
2019-02-18T09:47:42.503Z,21.01
2019-02-18T09:48:42.510Z,21.60
2019-02-18T09:49:42.495Z,21.55
2019-02-18T09:50:42.498Z,21.65
2019-02-18T09:51:42.497Z,22.28
2019-02-18T09:52:42.493Z,22.58
2019-02-18T09:53:42.493Z,21.58
2019-02-18T09:54:42.488Z,21.19
2019-02-18T09:55:42.487Z,21.82
2019-02-18T09:56:42.480Z,22.44
2019-02-18T09:57:42.477Z,22.77
2019-02-18T09:58:42.471Z,22.58
2019-02-18T09:59:42.468Z,22.86
2019-02-18T10:00:42.474Z,23.26
2019-02-18T10:01:43.243Z,22.83
2019-02-18T10:02:42.481Z,22.34
2019-02-18T10:03:42.458Z,22.66
2019-02-18T10:04:42.456Z,22.83
2019-02-18T10:05:42.455Z,23.18
2019-02-18T10:06:42.455Z,23.63
2019-02-18T10:07:42.450Z,23.86
2019-02-18T10:08:42.447Z,24.19
2019-02-18T10:09:42.442Z,24.36
2019-02-18T10:10:42.448Z,24.31
2019-02-18T10:11:42.433Z,24.38
2019-02-18T10:12:42.433Z,22.49
2019-02-18T10:13:42.434Z,21.96
2019-02-18T10:14:42.425Z,22.12
2019-02-18T10:15:42.432Z,21.10
2019-02-18T10:16:42.420Z,21.37
2019-02-18T10:17:42.422Z,21.88
2019-02-18T10:18:42.411Z,22.49
2019-02-18T10:19:43.142Z,22.30
2019-02-18T10:20:42.409Z,22.36
2019-02-18T10:21:42.406Z,21.55
2019-02-18T10:22:42.403Z,22.03
2019-02-18T10:23:42.399Z,21.84
2019-02-18T10:24:50.797Z,22.28
2019-02-18T10:25:42.392Z,22.66
2019-02-18T10:26:42.385Z,23.07
2019-02-18T10:27:42.431Z,23.31
2019-02-18T10:28:42.373Z,23.81
2019-02-18T10:29:42.371Z,24.03
2019-02-18T10:30:42.370Z,24.11
2019-02-18T10:31:42.360Z,23.98
2019-02-18T10:32:42.362Z,24.13
2019-02-18T10:33:42.351Z,23.98
2019-02-18T10:34:42.353Z,23.96
2019-02-18T10:35:42.345Z,24.13
2019-02-18T10:36:42.341Z,24.37
2019-02-18T10:37:42.339Z,24.43
2019-02-18T10:38:42.330Z,24.56
2019-02-18T10:39:42.326Z,24.70
2019-02-18T10:40:42.335Z,24.43
2019-02-18T10:41:42.326Z,24.34
2019-02-18T10:42:42.319Z,24.07
2019-02-18T10:43:42.312Z,23.97
2019-02-18T10:44:42.303Z,24.06
2019-02-18T10:45:42.306Z,23.89
2019-02-18T10:46:42.296Z,23.94
2019-02-18T10:47:42.296Z,24.33
2019-02-18T10:48:42.284Z,23.97
2019-02-18T10:49:42.277Z,23.25
2019-02-18T10:50:42.275Z,23.48
2019-02-18T10:51:42.279Z,23.78
2019-02-18T10:52:42.266Z,22.89
2019-02-18T10:53:42.265Z,23.15
2019-02-18T10:54:42.264Z,23.18
2019-02-18T10:55:42.258Z,23.36
2019-02-18T10:56:42.243Z,23.18
2019-02-18T10:57:42.286Z,23.64
2019-02-18T10:58:42.241Z,23.97
2019-02-18T10:59:42.237Z,24.04
2019-02-18T11:00:42.222Z,24.48
2019-02-18T11:01:42.216Z,24.60
2019-02-18T11:02:42.216Z,24.96
2019-02-18T11:03:42.207Z,24.84
2019-02-18T11:04:42.201Z,25.01
2019-02-18T11:05:42.195Z,25.00
2019-02-18T11:06:42.193Z,24.90
2019-02-18T11:07:42.185Z,23.94
2019-02-18T11:08:42.176Z,23.94
2019-02-18T11:09:42.178Z,22.73
2019-02-18T11:10:42.172Z,22.93
2019-02-18T11:11:42.163Z,22.78
2019-02-18T11:12:42.156Z,23.13
2019-02-18T11:13:42.150Z,23.55
2019-02-18T11:14:42.149Z,23.71
2019-02-18T11:15:42.144Z,23.49
2019-02-18T11:16:42.139Z,23.85
2019-02-18T11:17:42.131Z,23.49
2019-02-18T11:18:42.124Z,23.23
2019-02-18T11:19:42.120Z,23.34
2019-02-18T11:20:42.111Z,23.34
2019-02-18T11:21:42.110Z,22.66
2019-02-18T11:22:42.097Z,22.68
2019-02-18T11:23:42.091Z,23.04
2019-02-18T11:24:42.082Z,23.36
2019-02-18T11:25:42.078Z,23.59
2019-02-18T11:26:42.077Z,23.51
2019-02-18T11:27:42.071Z,22.86
2019-02-18T11:28:42.063Z,22.66
2019-02-18T11:29:42.057Z,22.86
2019-02-18T11:30:42.051Z,22.95
2019-02-18T11:31:42.037Z,23.08
2019-02-18T11:32:42.031Z,23.10
2019-02-18T11:33:42.026Z,23.17
2019-02-18T11:34:42.021Z,23.29
2019-02-18T11:35:42.022Z,23.08
2019-02-18T11:36:42.002Z,23.08
2019-02-18T11:37:42.000Z,22.71
2019-02-18T11:38:42.002Z,22.89
2019-02-18T11:39:42.085Z,23.10
2019-02-18T11:40:41.977Z,22.62
2019-02-18T11:41:41.973Z,22.85
2019-02-18T11:42:41.970Z,23.07
2019-02-18T11:43:41.957Z,22.80
2019-02-18T11:44:41.952Z,22.91
2019-02-18T11:45:41.945Z,23.13
2019-02-18T11:46:41.942Z,23.37
2019-02-18T11:47:41.935Z,23.67
2019-02-18T11:48:41.926Z,23.85
2019-02-18T11:49:41.927Z,23.94
2019-02-18T11:50:41.916Z,23.98
2019-02-18T11:51:41.918Z,23.97
2019-02-18T11:52:41.902Z,23.85
2019-02-18T11:53:41.891Z,23.61
2019-02-18T11:54:41.883Z,23.33
2019-02-18T11:55:41.889Z,23.63
2019-02-18T11:56:41.871Z,23.69
2019-02-18T11:57:41.864Z,23.81
2019-02-18T11:58:41.872Z,23.22
2019-02-18T11:59:41.845Z,22.76
2019-02-18T12:00:41.861Z,22.78
2019-02-18T12:01:41.842Z,22.49
2019-02-18T12:02:41.833Z,22.30
2019-02-18T12:03:41.818Z,22.12
2019-02-18T12:04:41.813Z,22.31
2019-02-18T12:05:41.808Z,22.48
2019-02-18T12:06:41.805Z,22.71
2019-02-18T12:07:41.795Z,22.81
2019-02-18T12:08:41.787Z,22.96
2019-02-18T12:09:41.782Z,22.88
2019-02-18T12:10:41.779Z,22.95
2019-02-18T12:11:41.768Z,22.52
2019-02-18T12:12:41.760Z,22.46
2019-02-18T12:13:41.747Z,22.64
2019-02-18T12:14:41.738Z,22.27
2019-02-18T12:15:41.734Z,22.23
2019-02-18T12:16:41.723Z,22.58
2019-02-18T12:17:41.717Z,22.62
2019-02-18T12:18:41.708Z,22.51
2019-02-18T12:19:41.700Z,22.64
2019-02-18T12:20:41.709Z,22.88
2019-02-18T12:21:41.685Z,22.83
2019-02-18T12:22:41.680Z,22.92
2019-02-18T12:23:41.668Z,22.74
2019-02-18T12:24:41.663Z,22.76
2019-02-18T12:25:41.659Z,22.93
2019-02-18T12:26:41.646Z,22.98
2019-02-18T12:27:41.664Z,22.83
2019-02-18T12:28:41.634Z,22.55
2019-02-18T12:29:41.625Z,22.66
2019-02-18T12:30:41.616Z,22.66
2019-02-18T12:31:41.611Z,22.80
2019-02-18T12:32:41.601Z,23.06
2019-02-18T12:33:41.599Z,23.25
2019-02-18T12:34:41.590Z,23.28
2019-02-18T12:35:41.576Z,23.26
2019-02-18T12:36:41.573Z,23.37
2019-02-18T12:37:41.569Z,23.51
2019-02-18T12:38:41.556Z,23.55
2019-02-18T12:39:41.546Z,23.59
2019-02-18T12:40:41.545Z,23.70
2019-02-18T12:41:48.339Z,23.52
2019-02-18T12:42:42.365Z,23.49
2019-02-18T12:43:41.522Z,23.17
2019-02-18T12:44:41.508Z,23.36
2019-02-18T12:45:41.510Z,22.98
2019-02-18T12:46:41.490Z,22.81
2019-02-18T12:47:41.488Z,22.36
2019-02-18T12:48:41.472Z,22.28
2019-02-18T12:49:41.471Z,22.30
2019-02-18T12:50:41.499Z,22.15
2019-02-18T12:51:41.454Z,22.28
2019-02-18T12:52:41.444Z,22.55
2019-02-18T12:53:41.433Z,22.55
2019-02-18T12:54:41.435Z,22.61
2019-02-18T12:55:41.424Z,22.61
2019-02-18T12:56:41.407Z,22.73
2019-02-18T12:57:41.407Z,22.64
2019-02-18T12:58:41.394Z,22.46
2019-02-18T12:59:41.470Z,22.49
2019-02-18T13:00:41.385Z,22.64
2019-02-18T13:01:41.381Z,22.76
2019-02-18T13:03:41.354Z,23.13
2019-02-18T13:04:41.347Z,23.39
2019-02-18T13:05:41.342Z,23.11
2019-02-18T13:06:41.328Z,22.53